createdAt,value
2023-09-06T00:04:11.897Z,17.20
2023-09-06T00:09:33.871Z,17.16
2023-09-06T00:14:55.699Z,17.01
2023-09-06T00:20:17.470Z,16.92
2023-09-06T00:25:39.195Z,16.99
2023-09-06T00:31:01.020Z,17.00
2023-09-06T00:36:22.876Z,16.97
2023-09-06T00:41:44.678Z,16.84
2023-09-06T00:47:06.597Z,16.94
2023-09-06T00:52:28.491Z,16.90
2023-09-06T00:57:50.470Z,16.73
2023-09-06T01:03:12.795Z,16.56
2023-09-06T01:08:43.704Z,16.53
2023-09-06T01:14:05.435Z,16.52
2023-09-06T01:19:30.776Z,16.54
2023-09-06T01:24:53.425Z,16.57
2023-09-06T01:30:15.441Z,16.52
2023-09-06T01:35:37.196Z,16.56
2023-09-06T01:40:58.921Z,16.55
2023-09-06T01:46:21.771Z,16.46
2023-09-06T01:51:45.047Z,16.34
2023-09-06T01:57:06.819Z,16.27
2023-09-06T02:02:28.724Z,16.27
2023-09-06T02:07:50.620Z,16.14
2023-09-06T02:13:12.387Z,16.00
2023-09-06T02:18:34.208Z,15.93
2023-09-06T02:23:55.948Z,15.95
2023-09-06T02:29:17.650Z,15.80
2023-09-06T02:34:39.413Z,15.72
2023-09-06T02:40:02.093Z,15.84
2023-09-06T02:45:23.866Z,15.89
2023-09-06T02:50:45.712Z,15.87
2023-09-06T02:56:07.457Z,15.86
2023-09-06T03:01:29.261Z,15.78
2023-09-06T03:06:51.231Z,15.54
2023-09-06T03:12:13.038Z,15.52
2023-09-06T03:17:34.906Z,15.64
2023-09-06T03:22:56.634Z,15.52
2023-09-06T03:28:18.897Z,15.41
2023-09-06T03:33:40.752Z,15.46
2023-09-06T03:39:02.508Z,15.43
2023-09-06T03:44:24.230Z,15.34
2023-09-06T03:49:46.126Z,15.27
2023-09-06T03:55:08.025Z,15.22
2023-09-06T04:00:29.793Z,15.19
2023-09-06T04:05:51.528Z,15.16
2023-09-06T04:11:14.900Z,15.26
2023-09-06T04:16:38.330Z,15.44
2023-09-06T04:22:00.147Z,15.30
2023-09-06T04:27:21.897Z,15.14
2023-09-06T04:32:44.561Z,15.30
2023-09-06T04:38:06.648Z,15.24
2023-09-06T04:43:28.574Z,15.34
2023-09-06T04:48:50.446Z,15.31
2023-09-06T04:54:12.184Z,15.38
2023-09-06T04:59:36.782Z,15.60
2023-09-06T05:04:58.496Z,15.73
2023-09-06T05:10:20.458Z,16.03
2023-09-06T05:15:42.211Z,16.39
2023-09-06T05:21:04.092Z,16.57
2023-09-06T05:26:25.828Z,16.52
2023-09-06T05:31:47.592Z,16.92
2023-09-06T05:37:09.385Z,17.19
2023-09-06T05:42:31.363Z,17.52
2023-09-06T05:47:53.757Z,17.53
2023-09-06T05:53:15.525Z,17.85
2023-09-06T05:58:37.266Z,17.95
2023-09-06T06:03:59.022Z,18.30
2023-09-06T06:09:20.856Z,18.57
2023-09-06T06:14:42.618Z,18.80
2023-09-06T06:20:05.126Z,19.00
2023-09-06T06:25:26.967Z,19.24
2023-09-06T06:30:48.712Z,19.53
2023-09-06T06:36:10.500Z,19.89
2023-09-06T06:41:32.370Z,20.26
2023-09-06T06:46:54.169Z,20.96
2023-09-06T06:52:16.008Z,35.66
2023-09-06T06:57:37.759Z,43.65
2023-09-06T07:02:59.616Z,47.96
2023-09-06T07:08:21.513Z,50.16
2023-09-06T07:13:43.922Z,51.98
2023-09-06T07:19:06.206Z,55.65
2023-09-06T07:24:28.073Z,57.69
2023-09-06T07:29:50.213Z,59.21
2023-09-06T07:35:12.176Z,57.71
2023-09-06T07:40:34.054Z,58.73
2023-09-06T07:45:59.659Z,60.45
2023-09-06T07:51:21.575Z,60.44
2023-09-06T07:56:43.349Z,61.29
2023-09-06T08:02:05.130Z,61.88
2023-09-06T08:07:26.902Z,60.77
2023-09-06T08:12:48.662Z,59.36
2023-09-06T08:18:11.415Z,61.20
2023-09-06T08:23:33.260Z,61.64
2023-09-06T08:28:55.239Z,61.90
2023-09-06T08:34:16.985Z,61.84
2023-09-06T08:39:38.730Z,62.62
2023-09-06T08:45:02.363Z,62.23
2023-09-06T08:50:24.349Z,62.66
2023-09-06T08:55:46.614Z,62.01
2023-09-06T09:01:08.641Z,61.17
2023-09-06T09:06:30.551Z,62.24
2023-09-06T09:11:53.367Z,61.46
2023-09-06T09:17:15.121Z,62.33
2023-09-06T09:22:37.002Z,62.23
2023-09-06T09:27:59.911Z,61.48
2023-09-06T09:33:28.394Z,61.66
2023-09-06T09:38:51.569Z,61.31
2023-09-06T09:44:16.970Z,59.61
2023-09-06T09:49:40.633Z,59.74
2023-09-06T09:55:03.565Z,56.90
2023-09-06T10:00:27.181Z,52.37
2023-09-06T10:05:49.167Z,49.32
2023-09-06T10:11:12.430Z,55.73
2023-09-06T10:16:34.180Z,57.97
2023-09-06T10:21:56.485Z,58.65
2023-09-06T10:27:18.273Z,58.52
2023-09-06T10:32:41.502Z,58.47
2023-09-06T10:38:11.521Z,58.02
2023-09-06T10:44:03.984Z,55.90
2023-09-06T10:49:29.292Z,54.63
2023-09-06T10:54:54.646Z,55.95
2023-09-06T11:00:20.926Z,55.87
2023-09-06T11:05:45.912Z,54.66
2023-09-06T11:11:10.676Z,52.53
2023-09-06T11:16:32.598Z,50.81
2023-09-06T11:22:10.827Z,51.23
2023-09-06T11:27:32.768Z,46.65
2023-09-06T11:32:57.627Z,45.93
2023-09-06T11:38:22.696Z,44.18
2023-09-06T11:43:44.857Z,43.19
2023-09-06T11:49:07.112Z,41.58
2023-09-06T11:54:28.931Z,41.44
2023-09-06T11:59:53.437Z,42.24
2023-09-06T12:05:15.473Z,41.15
2023-09-06T12:10:37.227Z,41.01
2023-09-06T12:16:03.296Z,39.65
2023-09-06T12:21:25.053Z,38.85
2023-09-06T12:26:46.859Z,38.74
2023-09-06T12:32:08.710Z,38.08
2023-09-06T12:37:30.417Z,38.53
2023-09-06T12:42:52.115Z,38.26
2023-09-06T12:48:13.935Z,36.86
2023-09-06T12:53:36.272Z,37.12
2023-09-06T12:58:58.043Z,37.03
2023-09-06T13:04:19.922Z,36.71
2023-09-06T13:09:41.728Z,35.72
2023-09-06T13:15:03.758Z,35.84
2023-09-06T13:20:25.612Z,35.05
2023-09-06T13:25:47.366Z,33.77
2023-09-06T13:31:09.424Z,33.54
2023-09-06T13:36:31.724Z,33.52
2023-09-06T13:41:53.794Z,33.20
2023-09-06T13:47:15.687Z,33.12
2023-09-06T13:52:37.476Z,32.67
2023-09-06T13:57:59.292Z,31.70
2023-09-06T14:03:21.214Z,30.99
2023-09-06T14:08:43.078Z,31.44
2023-09-06T14:14:04.990Z,31.23
2023-09-06T14:19:28.981Z,31.18
2023-09-06T14:24:50.694Z,31.01
2023-09-06T14:30:12.812Z,30.83
2023-09-06T14:35:41.507Z,30.83
2023-09-06T14:41:03.275Z,30.66
2023-09-06T14:46:25.152Z,30.65
2023-09-06T14:51:46.935Z,30.22
2023-09-06T14:57:08.746Z,30.17
2023-09-06T15:02:30.632Z,30.03
2023-09-06T15:07:52.501Z,29.91
2023-09-06T15:13:14.245Z,29.85
2023-09-06T15:18:36.178Z,29.67
2023-09-06T15:23:58.007Z,29.58
2023-09-06T15:29:19.748Z,29.40
2023-09-06T15:34:41.470Z,29.29
2023-09-06T15:40:03.475Z,29.09
2023-09-06T15:45:25.782Z,28.93
2023-09-06T15:50:47.587Z,28.78
2023-09-06T15:56:09.459Z,28.62
2023-09-06T16:01:32.264Z,28.43
2023-09-06T16:06:54.181Z,28.19
2023-09-06T16:12:15.974Z,27.95
2023-09-06T16:17:37.759Z,27.81
2023-09-06T16:22:59.524Z,27.59
2023-09-06T16:28:21.339Z,27.37
2023-09-06T16:33:43.165Z,27.18
2023-09-06T16:39:04.976Z,26.99
2023-09-06T16:44:28.429Z,26.81
2023-09-06T16:49:52.149Z,26.66
2023-09-06T16:55:13.930Z,26.48
2023-09-06T17:00:35.795Z,26.23
2023-09-06T17:05:57.533Z,26.02
2023-09-06T17:11:19.473Z,25.84
2023-09-06T17:16:41.399Z,25.57
2023-09-06T17:22:03.295Z,25.33
2023-09-06T17:27:25.055Z,25.09
2023-09-06T17:33:14.338Z,24.86
2023-09-06T17:38:36.245Z,24.62
2023-09-06T17:43:57.932Z,24.43
2023-09-06T17:49:19.962Z,24.25
2023-09-06T17:54:41.843Z,24.02
2023-09-06T18:00:04.942Z,23.87
2023-09-06T18:05:27.283Z,23.83
2023-09-06T18:10:49.265Z,23.54
2023-09-06T18:16:13.174Z,23.39
2023-09-06T18:21:36.255Z,23.18
2023-09-06T18:27:07.946Z,23.01
2023-09-06T18:32:30.350Z,22.85
2023-09-06T18:37:52.129Z,22.72
2023-09-06T18:43:14.211Z,22.53
2023-09-06T18:48:36.468Z,22.39
2023-09-06T18:53:58.466Z,22.31
2023-09-06T18:59:20.224Z,22.34
2023-09-06T19:04:43.624Z,22.27
2023-09-06T19:10:07.039Z,22.07
2023-09-06T19:15:28.779Z,21.79
2023-09-06T19:20:50.517Z,21.70
2023-09-06T19:26:12.313Z,21.67
2023-09-06T19:31:34.079Z,21.61
2023-09-06T19:36:56.469Z,21.67
2023-09-06T19:42:18.181Z,21.47
2023-09-06T19:47:40.100Z,21.25
2023-09-06T19:53:02.093Z,21.12
2023-09-06T19:58:23.852Z,21.21
2023-09-06T20:03:45.684Z,20.94
2023-09-06T20:09:07.688Z,20.82
2023-09-06T20:14:29.774Z,20.78
2023-09-06T20:19:51.597Z,20.64
2023-09-06T20:25:13.369Z,20.51
2023-09-06T20:30:38.929Z,20.38
2023-09-06T20:36:01.437Z,20.31
2023-09-06T20:41:23.332Z,20.19
2023-09-06T20:46:45.133Z,20.11
2023-09-06T20:52:07.049Z,20.04
2023-09-06T20:57:28.871Z,19.98
2023-09-06T21:02:50.714Z,19.92
2023-09-06T21:08:12.506Z,19.86
2023-09-06T21:13:34.296Z,19.82
2023-09-06T21:18:56.071Z,19.83
2023-09-06T21:24:17.923Z,19.87
2023-09-06T21:29:39.680Z,19.88
2023-09-06T21:35:01.807Z,19.83
2023-09-06T21:40:23.643Z,19.67
2023-09-06T21:45:45.542Z,19.55
2023-09-06T21:51:12.286Z,19.45
2023-09-06T21:56:34.087Z,19.30
2023-09-06T22:01:56.078Z,19.20
2023-09-06T22:07:17.850Z,19.19
2023-09-06T22:12:39.637Z,19.12
2023-09-06T22:18:01.498Z,19.08
2023-09-06T22:23:23.434Z,19.08
2023-09-06T22:28:45.178Z,19.05
2023-09-06T22:34:06.972Z,18.98
2023-09-06T22:39:28.949Z,18.88
2023-09-06T22:44:50.702Z,18.83
2023-09-06T22:50:12.486Z,18.86
2023-09-06T22:55:34.230Z,18.86
2023-09-06T23:01:04.412Z,18.84
2023-09-06T23:06:26.407Z,18.97
2023-09-06T23:11:49.937Z,18.99
2023-09-06T23:17:11.803Z,18.98
2023-09-06T23:22:33.646Z,18.69
2023-09-06T23:27:55.455Z,18.93
2023-09-06T23:33:17.251Z,18.89
2023-09-06T23:38:39.017Z,18.79
2023-09-06T23:44:00.770Z,18.74
2023-09-06T23:49:22.528Z,18.61
2023-09-06T23:54:48.149Z,18.64
